createdAt,value
2017-11-01T00:00:31.942Z,0
2017-11-01T00:01:42.438Z,0
2017-11-01T00:02:52.907Z,0
2017-11-01T00:04:03.394Z,0
2017-11-01T00:05:13.848Z,0
2017-11-01T00:06:24.345Z,0
2017-11-01T00:07:34.946Z,0
2017-11-01T00:08:45.475Z,0
2017-11-01T00:09:55.936Z,0
2017-11-01T00:11:06.498Z,0
2017-11-01T00:12:16.955Z,0
2017-11-01T00:13:27.442Z,0
2017-11-01T00:14:37.897Z,0
2017-11-01T00:15:48.360Z,0
2017-11-01T00:16:58.870Z,0
2017-11-01T00:18:09.385Z,0
2017-11-01T00:19:19.943Z,0
2017-11-01T00:20:30.714Z,0
2017-11-01T00:21:41.165Z,0
2017-11-01T00:22:51.683Z,0
2017-11-01T00:24:02.172Z,0
2017-11-01T00:25:12.661Z,0
2017-11-01T00:26:23.151Z,0
2017-11-01T00:27:33.621Z,0
2017-11-01T00:28:44.166Z,0
2017-11-01T00:29:54.621Z,0
2017-11-01T00:31:05.154Z,0
2017-11-01T00:32:15.283Z,0
2017-11-01T00:33:25.713Z,0
2017-11-01T00:34:35.448Z,0
2017-11-01T00:35:46.043Z,0
2017-11-01T00:36:56.744Z,0
2017-11-01T00:38:07.190Z,0
2017-11-01T00:39:17.660Z,0
2017-11-01T00:40:28.126Z,0
2017-11-01T00:41:38.590Z,0
2017-11-01T00:42:49.047Z,0
2017-11-01T00:43:59.195Z,0
2017-11-01T00:45:09.780Z,0
2017-11-01T00:46:20.238Z,0
2017-11-01T00:47:30.682Z,0
2017-11-01T00:48:41.271Z,0
2017-11-01T00:49:51.732Z,0
2017-11-01T00:51:02.231Z,0
2017-11-01T00:52:12.696Z,0
2017-11-01T00:53:23.196Z,0
2017-11-01T00:54:33.639Z,0
2017-11-01T00:55:43.906Z,0
2017-11-01T00:56:54.380Z,0
2017-11-01T00:58:04.861Z,0
2017-11-01T00:59:15.044Z,0
2017-11-01T01:00:25.542Z,0
2017-11-01T01:01:35.989Z,0
2017-11-01T01:02:46.166Z,0
2017-11-01T01:03:56.607Z,0
2017-11-01T01:05:07.063Z,0
2017-11-01T01:06:18.562Z,0
2017-11-01T01:07:29.019Z,0
2017-11-01T01:08:39.494Z,0
2017-11-01T01:09:49.935Z,0
2017-11-01T01:11:00.427Z,0
2017-11-01T01:12:10.921Z,0
2017-11-01T01:13:21.380Z,0
2017-11-01T01:14:31.850Z,0
2017-11-01T01:15:42.357Z,0
2017-11-01T01:16:52.527Z,0
2017-11-01T01:18:03.193Z,0
2017-11-01T01:19:13.664Z,0
2017-11-01T01:20:24.217Z,0
2017-11-01T01:21:34.692Z,0
2017-11-01T01:22:45.139Z,0
2017-11-01T01:23:55.613Z,0
2017-11-01T01:25:06.088Z,0
2017-11-01T01:26:16.550Z,0
2017-11-01T01:27:27.009Z,0
2017-11-01T01:28:37.691Z,0
2017-11-01T01:29:48.360Z,0
2017-11-01T01:30:59.005Z,0
2017-11-01T01:32:09.562Z,0
2017-11-01T01:33:20.031Z,0
2017-11-01T01:34:30.471Z,0
2017-11-01T01:35:40.910Z,0
2017-11-01T01:36:51.357Z,0
2017-11-01T01:38:01.904Z,0
2017-11-01T01:39:12.324Z,0
2017-11-01T01:40:22.767Z,0
2017-11-01T01:41:33.237Z,0
2017-11-01T01:42:43.786Z,0
2017-11-01T01:43:54.235Z,0
2017-11-01T01:45:04.724Z,0
2017-11-01T01:46:15.191Z,0
2017-11-01T01:47:25.644Z,0
2017-11-01T01:48:36.115Z,0
2017-11-01T01:49:46.613Z,0
2017-11-01T01:50:57.083Z,0
2017-11-01T01:52:07.582Z,0
2017-11-01T01:53:18.138Z,0
2017-11-01T01:54:28.580Z,0
2017-11-01T01:55:39.035Z,0
2017-11-01T01:56:49.482Z,0
2017-11-01T01:57:59.958Z,0
2017-11-01T01:59:10.437Z,0
2017-11-01T02:00:21.016Z,0
2017-11-01T02:01:31.728Z,0
2017-11-01T02:02:42.175Z,0
2017-11-01T02:03:52.901Z,0
2017-11-01T02:05:03.564Z,0
2017-11-01T02:06:14.026Z,0
2017-11-01T02:07:24.515Z,0
2017-11-01T02:08:34.998Z,0
2017-11-01T02:09:45.433Z,0
2017-11-01T02:10:55.932Z,0
2017-11-01T02:12:05.968Z,0
2017-11-01T02:13:16.445Z,0
2017-11-01T02:14:26.905Z,0
2017-11-01T02:15:37.363Z,0
2017-11-01T02:16:47.835Z,0
2017-11-01T02:17:57.944Z,0
2017-11-01T02:19:08.457Z,0
2017-11-01T02:20:18.981Z,0
2017-11-01T02:21:29.507Z,0
2017-11-01T02:22:39.966Z,0
2017-11-01T02:23:50.454Z,0
2017-11-01T02:25:00.890Z,0
2017-11-01T02:26:11.387Z,0
2017-11-01T02:27:21.916Z,0
2017-11-01T02:28:32.373Z,0
2017-11-01T02:29:42.825Z,0
2017-11-01T02:30:53.298Z,0
2017-11-01T02:32:03.835Z,0
2017-11-01T02:33:14.319Z,0
2017-11-01T02:34:24.842Z,0
2017-11-01T02:35:34.996Z,0
2017-11-01T02:36:45.447Z,0
2017-11-01T02:37:55.936Z,0
2017-11-01T02:39:06.126Z,0
2017-11-01T02:40:16.616Z,0
2017-11-01T02:41:27.222Z,0
2017-11-01T02:42:37.766Z,0
2017-11-01T02:43:48.251Z,0
2017-11-01T02:44:58.464Z,0
2017-11-01T02:46:08.984Z,0
2017-11-01T02:47:19.464Z,0
2017-11-01T02:48:29.912Z,0
2017-11-01T02:49:40.416Z,0
2017-11-01T02:50:51.119Z,0
2017-11-01T02:52:01.551Z,0
2017-11-01T02:53:12.010Z,0
2017-11-01T02:54:22.670Z,0
2017-11-01T02:55:33.210Z,0
2017-11-01T02:56:43.700Z,0
2017-11-01T02:57:54.128Z,0
2017-11-01T02:59:04.593Z,0
2017-11-01T03:00:15.039Z,0
2017-11-01T03:01:25.492Z,0
2017-11-01T03:02:36.159Z,0
2017-11-01T03:03:46.754Z,0
2017-11-01T03:04:57.200Z,0
2017-11-01T03:06:07.628Z,0
2017-11-01T03:07:18.096Z,0
2017-11-01T03:08:28.576Z,0
2017-11-01T03:09:39.114Z,0
2017-11-01T03:10:49.600Z,0
2017-11-01T03:12:00.194Z,0
2017-11-01T03:13:10.619Z,0
2017-11-01T03:14:21.213Z,0
2017-11-01T03:15:31.804Z,0
2017-11-01T03:16:42.276Z,0
2017-11-01T03:17:52.762Z,0
2017-11-01T03:19:03.201Z,0
2017-11-01T03:20:13.343Z,0
2017-11-01T03:21:23.443Z,0
2017-11-01T03:22:33.608Z,0
2017-11-01T03:23:44.060Z,0
2017-11-01T03:24:54.547Z,0
2017-11-01T03:26:05.055Z,0
2017-11-01T03:27:15.784Z,0
2017-11-01T03:28:26.471Z,0
2017-11-01T03:29:36.919Z,0
2017-11-01T03:30:47.421Z,0
2017-11-01T03:31:57.867Z,0
2017-11-01T03:33:09.288Z,0
2017-11-01T03:34:19.810Z,0
2017-11-01T03:35:30.260Z,0
2017-11-01T03:36:40.393Z,0
2017-11-01T03:37:50.844Z,0
2017-11-01T03:39:01.281Z,0
2017-11-01T03:40:11.735Z,0
2017-11-01T03:41:22.180Z,0
2017-11-01T03:42:32.777Z,0
2017-11-01T03:43:43.220Z,0
2017-11-01T03:44:53.755Z,0
2017-11-01T03:46:03.870Z,0
2017-11-01T03:47:14.325Z,0
2017-11-01T03:48:24.827Z,0
2017-11-01T03:49:35.295Z,0
2017-11-01T03:50:45.846Z,0
2017-11-01T03:51:56.295Z,0
2017-11-01T03:53:06.755Z,0
2017-11-01T03:54:17.188Z,0
2017-11-01T03:55:27.755Z,0
2017-11-01T03:56:38.305Z,0
2017-11-01T03:57:48.753Z,0
2017-11-01T03:58:59.222Z,0
2017-11-01T04:00:09.718Z,0
2017-11-01T04:01:19.876Z,0
2017-11-01T04:02:30.397Z,0
2017-11-01T04:03:40.832Z,0
2017-11-01T04:04:51.366Z,0
2017-11-01T04:06:01.370Z,0
2017-11-01T04:07:11.992Z,0
2017-11-01T04:08:22.461Z,0
2017-11-01T04:09:32.913Z,0
2017-11-01T04:10:43.391Z,0
2017-11-01T04:11:53.831Z,0
2017-11-01T04:13:03.864Z,0
2017-11-01T04:14:14.318Z,0
2017-11-01T04:15:24.788Z,0
2017-11-01T04:16:35.259Z,0
2017-11-01T04:17:45.720Z,0
2017-11-01T04:18:56.213Z,0
2017-11-01T04:20:06.720Z,0
2017-11-01T04:21:17.218Z,0
2017-11-01T04:22:27.759Z,0
2017-11-01T04:23:38.250Z,0
2017-11-01T04:24:48.695Z,0
2017-11-01T04:25:59.188Z,0
2017-11-01T04:27:09.666Z,0
2017-11-01T04:28:20.196Z,0
2017-11-01T04:29:30.641Z,0
2017-11-01T04:30:41.099Z,0
2017-11-01T04:31:51.659Z,0
2017-11-01T04:33:02.112Z,0
2017-11-01T04:34:12.633Z,0
2017-11-01T04:35:23.116Z,0
2017-11-01T04:36:33.679Z,0
2017-11-01T04:37:44.126Z,0
2017-11-01T04:38:54.574Z,0
2017-11-01T04:40:05.017Z,0
2017-11-01T04:41:15.181Z,0
2017-11-01T04:42:25.748Z,0
2017-11-01T04:43:36.208Z,0
2017-11-01T04:44:46.807Z,0
2017-11-01T04:45:57.263Z,0
2017-11-01T04:47:07.720Z,0
2017-11-01T04:48:18.184Z,0
2017-11-01T04:49:28.639Z,0
2017-11-01T04:50:39.135Z,0
2017-11-01T04:51:49.567Z,0
2017-11-01T04:53:00.049Z,0
2017-11-01T04:54:10.502Z,0
2017-11-01T04:55:20.941Z,0
2017-11-01T04:56:31.388Z,0
2017-11-01T04:57:41.875Z,0
2017-11-01T04:58:52.452Z,0
2017-11-01T05:00:03.041Z,0
2017-11-01T05:01:13.566Z,0
2017-11-01T05:02:23.729Z,0
2017-11-01T05:03:34.208Z,0
2017-11-01T05:04:44.659Z,0
2017-11-01T05:05:55.153Z,0
2017-11-01T05:07:05.606Z,0
2017-11-01T05:08:16.058Z,0
2017-11-01T05:09:26.478Z,0
2017-11-01T05:10:36.926Z,0
2017-11-01T05:11:47.399Z,0
2017-11-01T05:12:57.923Z,0
2017-11-01T05:14:08.394Z,0
2017-11-01T05:15:18.883Z,0
2017-11-01T05:16:29.018Z,0
2017-11-01T05:17:39.483Z,0
2017-11-01T05:18:49.938Z,0
2017-11-01T05:20:00.379Z,0
2017-11-01T05:21:10.894Z,0
2017-11-01T05:22:21.373Z,0
2017-11-01T05:23:31.927Z,0
2017-11-01T05:24:42.500Z,0
2017-11-01T05:25:52.981Z,0
2017-11-01T05:27:03.454Z,0
2017-11-01T05:28:13.919Z,0
2017-11-01T05:29:24.408Z,0
2017-11-01T05:30:34.552Z,0
2017-11-01T05:31:45.042Z,0
2017-11-01T05:32:55.582Z,0
2017-11-01T05:34:06.060Z,0
2017-11-01T05:35:16.495Z,0
2017-11-01T05:36:26.636Z,0
2017-11-01T05:37:37.069Z,0
2017-11-01T05:38:47.558Z,0
2017-11-01T05:39:58.033Z,0
2017-11-01T05:41:08.174Z,0
2017-11-01T05:42:18.605Z,0
2017-11-01T05:43:29.080Z,0
2017-11-01T05:44:39.534Z,0
2017-11-01T05:45:50.022Z,0
2017-11-01T05:47:00.558Z,0
2017-11-01T05:48:11.046Z,0
2017-11-01T05:49:21.159Z,0
2017-11-01T05:50:31.627Z,0
2017-11-01T05:51:42.209Z,0
2017-11-01T05:52:52.750Z,0
2017-11-01T05:54:03.200Z,0
2017-11-01T05:55:13.701Z,0
2017-11-01T05:56:24.157Z,0
2017-11-01T05:57:34.616Z,0
2017-11-01T05:58:45.094Z,0
2017-11-01T05:59:55.602Z,0
2017-11-01T06:01:06.061Z,0
2017-11-01T06:02:16.508Z,0
2017-11-01T06:03:26.975Z,0
2017-11-01T06:04:37.471Z,0
2017-11-01T06:05:47.927Z,0
2017-11-01T06:06:58.402Z,0
2017-11-01T06:08:08.555Z,0
2017-11-01T06:09:18.661Z,0
2017-11-01T06:10:29.093Z,0
2017-11-01T06:11:39.661Z,0
2017-11-01T06:12:50.100Z,0
2017-11-01T06:14:00.591Z,0
2017-11-01T06:15:11.060Z,0
2017-11-01T06:16:21.573Z,0
2017-11-01T06:17:32.012Z,0
2017-11-01T06:18:42.473Z,0
2017-11-01T06:19:52.921Z,0
2017-11-01T06:21:03.986Z,0
2017-11-01T06:22:14.460Z,0
2017-11-01T06:23:24.967Z,0
2017-11-01T06:24:35.427Z,0
2017-11-01T06:25:45.877Z,0
2017-11-01T06:26:56.352Z,0
2017-11-01T06:28:06.836Z,0
2017-11-01T06:29:17.534Z,0
2017-11-01T06:30:28.099Z,5
2017-11-01T06:31:38.541Z,5
2017-11-01T06:32:49.123Z,5
2017-11-01T06:33:59.297Z,5
2017-11-01T06:35:09.747Z,5
2017-11-01T06:36:20.195Z,5
2017-11-01T06:37:30.646Z,5
2017-11-01T06:38:41.176Z,5
2017-11-01T06:39:51.707Z,5
2017-11-01T06:41:02.246Z,5
2017-11-01T06:42:12.374Z,5
2017-11-01T06:43:22.815Z,5
2017-11-01T06:44:32.984Z,5
2017-11-01T06:45:43.503Z,10
2017-11-01T06:46:54.189Z,10
2017-11-01T06:48:04.636Z,10
2017-11-01T06:49:14.999Z,10
2017-11-01T06:50:25.479Z,15
2017-11-01T06:51:36.072Z,15
2017-11-01T06:52:46.537Z,15
2017-11-01T06:53:57.963Z,15
2017-11-01T06:55:08.426Z,15
2017-11-01T06:56:18.890Z,15
2017-11-01T06:57:29.342Z,15
2017-11-01T06:58:39.459Z,15
2017-11-01T06:59:50.144Z,15
2017-11-01T07:01:00.333Z,20
2017-11-01T07:02:10.829Z,20
2017-11-01T07:03:21.287Z,15
2017-11-01T07:04:31.781Z,15
2017-11-01T07:05:42.227Z,10
2017-11-01T07:06:52.710Z,10
2017-11-01T07:08:03.168Z,15
2017-11-01T07:09:13.627Z,20
2017-11-01T07:10:24.081Z,20
2017-11-01T07:11:34.546Z,20
2017-11-01T07:12:45.025Z,20
2017-11-01T07:13:55.596Z,25
2017-11-01T07:15:06.053Z,25
2017-11-01T07:16:16.599Z,20
2017-11-01T07:17:27.042Z,20
2017-11-01T07:18:37.526Z,30
2017-11-01T07:19:47.695Z,30
2017-11-01T07:20:58.146Z,30
2017-11-01T07:22:08.705Z,30
2017-11-01T07:23:19.159Z,25
2017-11-01T07:24:29.636Z,30
2017-11-01T07:25:40.074Z,30
2017-11-01T07:26:50.203Z,25
2017-11-01T07:28:00.731Z,25
2017-11-01T07:29:11.205Z,25
2017-11-01T07:30:21.718Z,30
2017-11-01T07:31:32.213Z,35
2017-11-01T07:32:42.885Z,35
2017-11-01T07:33:53.348Z,30
2017-11-01T07:35:03.493Z,30
2017-11-01T07:36:13.983Z,40
2017-11-01T07:37:24.450Z,45
2017-11-01T07:38:34.901Z,35
2017-11-01T07:39:45.384Z,30
2017-11-01T07:40:55.970Z,25
2017-11-01T07:42:06.455Z,25
2017-11-01T07:43:17.039Z,25
2017-11-01T07:44:27.473Z,25
2017-11-01T07:45:37.997Z,30
2017-11-01T07:46:48.421Z,35
2017-11-01T07:47:59.090Z,45
2017-11-01T07:49:09.218Z,50
2017-11-01T07:50:19.860Z,55
2017-11-01T07:51:29.911Z,55
2017-11-01T07:52:40.435Z,60
2017-11-01T07:53:50.980Z,60
2017-11-01T07:55:01.116Z,55
2017-11-01T07:56:11.567Z,40
2017-11-01T07:57:22.290Z,35
2017-11-01T07:58:32.782Z,30
2017-11-01T07:59:43.226Z,35
2017-11-01T08:00:53.337Z,45
2017-11-01T08:02:04.014Z,60
2017-11-01T08:03:14.246Z,80
2017-11-01T08:04:24.689Z,90
2017-11-01T08:05:34.850Z,95
2017-11-01T08:06:45.373Z,95
2017-11-01T08:07:55.837Z,80
2017-11-01T08:09:06.328Z,85
2017-11-01T08:10:16.799Z,65
2017-11-01T08:11:27.304Z,70
2017-11-01T08:12:37.795Z,75
2017-11-01T08:13:48.257Z,70
2017-11-01T08:14:57.954Z,80
2017-11-01T08:16:08.511Z,85
2017-11-01T08:17:18.987Z,90
2017-11-01T08:18:29.516Z,90
2017-11-01T08:19:40.040Z,95
2017-11-01T08:20:50.209Z,75
2017-11-01T08:22:00.712Z,85
2017-11-01T08:23:11.175Z,100
2017-11-01T08:24:21.842Z,125
2017-11-01T08:25:32.339Z,185
2017-11-01T08:26:42.817Z,280
2017-11-01T08:27:53.359Z,355
2017-11-01T08:29:03.874Z,370
2017-11-01T08:30:14.458Z,370
2017-11-01T08:31:24.990Z,340
2017-11-01T08:32:35.119Z,270
2017-11-01T08:33:45.647Z,235
2017-11-01T08:34:56.166Z,240
2017-11-01T08:36:06.779Z,225
2017-11-01T08:37:17.252Z,235
2017-11-01T08:38:27.772Z,265
2017-11-01T08:39:38.230Z,365
2017-11-01T08:40:48.721Z,370
2017-11-01T08:42:00.183Z,350
2017-11-01T08:43:10.645Z,265
2017-11-01T08:44:20.956Z,250
2017-11-01T08:45:31.434Z,230
2017-11-01T08:46:41.903Z,185
2017-11-01T08:47:52.409Z,155
2017-11-01T08:49:02.863Z,165
2017-11-01T08:50:13.389Z,130
2017-11-01T08:51:23.843Z,115
2017-11-01T08:52:34.322Z,110
2017-11-01T08:53:44.852Z,120
2017-11-01T08:54:55.313Z,120
2017-11-01T08:56:05.943Z,130
2017-11-01T08:57:16.901Z,125
2017-11-01T08:58:27.080Z,125
2017-11-01T08:59:37.510Z,120
2017-11-01T09:00:47.974Z,115
2017-11-01T09:01:58.533Z,110
2017-11-01T09:03:08.976Z,115
2017-11-01T09:04:19.430Z,100
2017-11-01T09:05:29.888Z,125
2017-11-01T09:06:40.069Z,125
2017-11-01T09:07:50.594Z,105
2017-11-01T09:09:01.065Z,110
2017-11-01T09:10:11.558Z,120
2017-11-01T09:11:22.015Z,125
2017-11-01T09:12:32.489Z,125
2017-11-01T09:13:43.189Z,125
2017-11-01T09:14:53.355Z,115
2017-11-01T09:16:03.827Z,110
2017-11-01T09:17:14.325Z,120
2017-11-01T09:18:24.772Z,135
2017-11-01T09:19:35.239Z,145
2017-11-01T09:20:45.748Z,150
2017-11-01T09:21:56.234Z,135
2017-11-01T09:23:06.801Z,130
2017-11-01T09:24:17.266Z,165
2017-11-01T09:25:27.885Z,145
2017-11-01T09:26:38.537Z,165
2017-11-01T09:27:48.997Z,175
2017-11-01T09:28:59.504Z,135
2017-11-01T09:30:09.970Z,140
2017-11-01T09:31:20.506Z,125
2017-11-01T09:32:31.110Z,135
2017-11-01T09:33:41.243Z,155
2017-11-01T09:34:51.683Z,160
2017-11-01T09:36:02.406Z,150
2017-11-01T09:37:12.884Z,145
2017-11-01T09:38:23.345Z,150
2017-11-01T09:39:33.857Z,150
2017-11-01T09:40:44.342Z,155
2017-11-01T09:41:54.807Z,165
2017-11-01T09:43:05.285Z,130
2017-11-01T09:44:15.779Z,140
2017-11-01T09:45:26.261Z,140
2017-11-01T09:46:36.710Z,180
2017-11-01T09:47:47.172Z,165
2017-11-01T09:48:57.654Z,180
2017-11-01T09:50:08.352Z,210
2017-11-01T09:51:18.889Z,240
2017-11-01T09:52:29.378Z,205
2017-11-01T09:53:39.515Z,165
2017-11-01T09:54:50.226Z,185
2017-11-01T09:56:00.785Z,205
2017-11-01T09:57:11.250Z,230
2017-11-01T09:58:21.719Z,215
2017-11-01T09:59:32.195Z,185
2017-11-01T10:00:42.718Z,170
2017-11-01T10:01:53.173Z,145
2017-11-01T10:03:03.836Z,155
2017-11-01T10:04:14.395Z,180
2017-11-01T10:05:24.845Z,165
2017-11-01T10:06:35.311Z,155
2017-11-01T10:07:45.819Z,155
2017-11-01T10:08:56.499Z,145
2017-11-01T10:10:06.975Z,185
2017-11-01T10:11:17.185Z,175
2017-11-01T10:12:27.415Z,175
2017-11-01T10:13:37.885Z,170
2017-11-01T10:14:48.383Z,195
2017-11-01T10:15:58.831Z,175
2017-11-01T10:17:09.293Z,160
2017-11-01T10:18:19.751Z,165
2017-11-01T10:19:30.407Z,170
2017-11-01T10:20:41.145Z,140
2017-11-01T10:21:51.663Z,165
2017-11-01T10:23:02.174Z,155
2017-11-01T10:24:12.636Z,145
2017-11-01T10:25:23.333Z,145
2017-11-01T10:26:33.839Z,140
2017-11-01T10:27:44.331Z,165
2017-11-01T10:28:54.831Z,165
2017-11-01T10:30:05.342Z,155
2017-11-01T10:31:15.931Z,130
2017-11-01T10:32:26.441Z,140
2017-11-01T10:33:36.931Z,125
2017-11-01T10:34:47.441Z,125
2017-11-01T10:35:57.953Z,130
2017-11-01T10:37:08.442Z,150
2017-11-01T10:38:18.898Z,145
2017-11-01T10:39:29.392Z,150
2017-11-01T10:40:39.506Z,155
2017-11-01T10:41:49.980Z,145
2017-11-01T10:43:00.447Z,125
2017-11-01T10:44:10.765Z,130
2017-11-01T10:45:21.272Z,125
2017-11-01T10:46:31.758Z,135
2017-11-01T10:47:41.913Z,115
2017-11-01T10:48:52.396Z,90
2017-11-01T10:50:02.981Z,90
2017-11-01T10:51:14.641Z,90
2017-11-01T10:52:25.171Z,100
2017-11-01T10:53:35.682Z,105
2017-11-01T10:54:46.166Z,120
2017-11-01T10:55:56.289Z,125
2017-11-01T10:57:06.752Z,140
2017-11-01T10:58:17.344Z,145
2017-11-01T10:59:27.815Z,150
2017-11-01T11:00:38.283Z,175
2017-11-01T11:01:48.744Z,175
2017-11-01T11:02:59.366Z,145
2017-11-01T11:04:09.616Z,160
2017-11-01T11:05:20.155Z,175
2017-11-01T11:06:30.309Z,150
2017-11-01T11:07:40.464Z,145
2017-11-01T11:08:51.358Z,125
2017-11-01T11:10:01.836Z,130
2017-11-01T11:11:11.521Z,155
2017-11-01T11:12:21.530Z,150
2017-11-01T11:13:32.025Z,165
2017-11-01T11:14:42.520Z,125
2017-11-01T11:15:53.082Z,145
2017-11-01T11:17:03.530Z,125
2017-11-01T11:18:14.054Z,160
2017-11-01T11:19:24.556Z,135
2017-11-01T11:20:35.037Z,100
2017-11-01T11:21:45.167Z,95
2017-11-01T11:22:55.634Z,135
2017-11-01T11:24:06.591Z,150
2017-11-01T11:25:16.687Z,155
2017-11-01T11:26:27.244Z,155
2017-11-01T11:27:37.746Z,155
2017-11-01T11:28:47.811Z,180
2017-11-01T11:29:58.337Z,180
2017-11-01T11:31:08.855Z,150
2017-11-01T11:32:19.336Z,135
2017-11-01T11:33:30.010Z,135
2017-11-01T11:34:40.528Z,130
2017-11-01T11:35:51.130Z,145
2017-11-01T11:37:01.600Z,140
2017-11-01T11:38:12.074Z,130
2017-11-01T11:39:22.550Z,125
2017-11-01T11:40:33.057Z,100
2017-11-01T11:41:43.304Z,125
2017-11-01T11:42:53.765Z,120
2017-11-01T11:44:04.259Z,125
2017-11-01T11:45:14.935Z,115
2017-11-01T11:46:25.413Z,100
2017-11-01T11:47:35.925Z,110
2017-11-01T11:48:46.409Z,95
2017-11-01T11:49:57.003Z,95
2017-11-01T11:51:07.160Z,80
2017-11-01T11:52:17.718Z,85
2017-11-01T11:53:28.276Z,85
2017-11-01T11:54:38.747Z,90
2017-11-01T11:55:49.319Z,100
2017-11-01T11:56:59.814Z,115
2017-11-01T11:58:10.250Z,125
2017-11-01T11:59:20.802Z,120
2017-11-01T12:00:30.838Z,130
2017-11-01T12:01:41.461Z,130
2017-11-01T12:02:51.980Z,125
2017-11-01T12:04:03.590Z,105
2017-11-01T12:05:14.066Z,85
2017-11-01T12:06:24.883Z,95
2017-11-01T12:07:35.456Z,95
2017-11-01T12:08:45.908Z,105
2017-11-01T12:09:56.046Z,105
2017-11-01T12:11:06.654Z,95
2017-11-01T12:12:17.085Z,100
2017-11-01T12:13:27.622Z,105
2017-11-01T12:14:37.752Z,95
2017-11-01T12:15:48.218Z,100
2017-11-01T12:16:58.718Z,105
2017-11-01T12:18:09.183Z,90
2017-11-01T12:19:19.657Z,90
2017-11-01T12:20:29.397Z,95
2017-11-01T12:21:40.069Z,100
2017-11-01T12:22:50.116Z,90
2017-11-01T12:24:00.606Z,95
2017-11-01T12:25:11.084Z,90
2017-11-01T12:26:21.682Z,85
2017-11-01T12:27:32.306Z,80
2017-11-01T12:28:42.905Z,70
2017-11-01T12:29:53.391Z,70
2017-11-01T12:31:03.891Z,70
2017-11-01T12:32:14.360Z,70
2017-11-01T12:33:24.960Z,80
2017-11-01T12:34:35.441Z,70
2017-11-01T12:35:45.903Z,70
2017-11-01T12:36:56.372Z,80
2017-11-01T12:38:06.845Z,80
2017-11-01T12:39:17.323Z,75
2017-11-01T12:40:27.786Z,70
2017-11-01T12:41:37.868Z,70
2017-11-01T12:42:48.359Z,70
2017-11-01T12:43:58.766Z,65
2017-11-01T12:45:09.261Z,70
2017-11-01T12:46:19.723Z,75
2017-11-01T12:47:29.666Z,70
2017-11-01T12:48:40.244Z,70
2017-11-01T12:49:50.731Z,70
2017-11-01T12:51:01.188Z,80
2017-11-01T12:52:11.408Z,70
2017-11-01T12:53:22.059Z,70
2017-11-01T12:54:32.581Z,70
2017-11-01T12:55:43.095Z,70
2017-11-01T12:56:53.599Z,70
2017-11-01T12:58:04.142Z,80
2017-11-01T12:59:14.695Z,75
2017-11-01T13:00:25.178Z,70
2017-11-01T13:01:35.643Z,70
2017-11-01T13:02:46.134Z,75
2017-11-01T13:03:56.269Z,85
2017-11-01T13:05:06.882Z,80
2017-11-01T13:06:17.442Z,75
2017-11-01T13:07:27.929Z,75
2017-11-01T13:08:38.402Z,65
2017-11-01T13:09:48.872Z,70
2017-11-01T13:10:59.384Z,70
2017-11-01T13:12:09.870Z,65
2017-11-01T13:13:20.330Z,65
2017-11-01T13:14:30.925Z,60
2017-11-01T13:15:41.439Z,60
2017-11-01T13:16:51.942Z,60
2017-11-01T13:18:02.164Z,60
2017-11-01T13:19:12.681Z,55
2017-11-01T13:20:23.393Z,60
2017-11-01T13:21:33.868Z,55
2017-11-01T13:22:44.345Z,55
2017-11-01T13:23:54.808Z,60
2017-11-01T13:25:05.324Z,60
2017-11-01T13:26:15.794Z,60
2017-11-01T13:27:26.314Z,60
2017-11-01T13:28:36.825Z,60
2017-11-01T13:29:47.398Z,60
2017-11-01T13:30:57.894Z,60
2017-11-01T13:32:08.326Z,65
2017-11-01T13:33:18.837Z,65
2017-11-01T13:34:29.335Z,65
2017-11-01T13:35:39.836Z,65
2017-11-01T13:36:50.386Z,70
2017-11-01T13:38:00.876Z,65
2017-11-01T13:39:11.440Z,65
2017-11-01T13:40:22.138Z,65
2017-11-01T13:41:32.621Z,65
2017-11-01T13:42:43.073Z,65
2017-11-01T13:43:53.533Z,65
2017-11-01T13:45:04.050Z,75
2017-11-01T13:46:14.525Z,75
2017-11-01T13:47:25.049Z,75
2017-11-01T13:48:36.550Z,75
2017-11-01T13:49:47.034Z,80
2017-11-01T13:50:57.584Z,80
2017-11-01T13:52:08.084Z,90
2017-11-01T13:53:18.615Z,90
2017-11-01T13:54:28.672Z,95
2017-11-01T13:55:39.136Z,90
2017-11-01T13:56:49.627Z,80
2017-11-01T13:58:00.127Z,80
2017-11-01T13:59:10.716Z,70
2017-11-01T14:00:21.249Z,70
2017-11-01T14:01:31.730Z,75
2017-11-01T14:02:42.229Z,70
2017-11-01T14:03:52.687Z,65
2017-11-01T14:05:03.149Z,60
2017-11-01T14:06:13.312Z,70
2017-11-01T14:07:23.766Z,65
2017-11-01T14:08:34.318Z,60
2017-11-01T14:09:44.832Z,60
2017-11-01T14:10:55.342Z,70
2017-11-01T14:12:05.878Z,75
2017-11-01T14:13:16.370Z,70
2017-11-01T14:14:26.849Z,75
2017-11-01T14:15:37.330Z,75
2017-11-01T14:16:47.606Z,75
2017-11-01T14:17:58.325Z,70
2017-11-01T14:19:08.799Z,75
2017-11-01T14:20:18.919Z,65
2017-11-01T14:21:29.073Z,60
2017-11-01T14:22:39.094Z,60
2017-11-01T14:23:49.568Z,60
2017-11-01T14:25:00.035Z,60
2017-11-01T14:26:10.542Z,60
2017-11-01T14:27:21.070Z,60
2017-11-01T14:28:31.542Z,50
2017-11-01T14:29:42.078Z,45
2017-11-01T14:30:52.574Z,45
2017-11-01T14:32:03.263Z,40
2017-11-01T14:33:13.754Z,40
2017-11-01T14:34:24.196Z,40
2017-11-01T14:35:34.726Z,40
2017-11-01T14:36:45.276Z,45
2017-11-01T14:37:55.769Z,50
2017-11-01T14:39:06.486Z,50
2017-11-01T14:40:17.086Z,50
2017-11-01T14:41:27.579Z,50
2017-11-01T14:42:38.063Z,50
2017-11-01T14:43:48.512Z,50
2017-11-01T14:44:59.093Z,45
2017-11-01T14:46:10.540Z,40
2017-11-01T14:47:21.022Z,40
2017-11-01T14:48:31.578Z,35
2017-11-01T14:49:42.079Z,35
2017-11-01T14:51:24.412Z,30
2017-11-01T14:52:35.031Z,30
2017-11-01T14:53:45.188Z,25
2017-11-01T14:54:55.695Z,25
2017-11-01T14:56:06.211Z,25
2017-11-01T14:57:16.737Z,25
2017-11-01T14:58:27.234Z,30
2017-11-01T14:59:37.772Z,30
2017-11-01T15:00:48.264Z,35
2017-11-01T15:01:58.781Z,35
2017-11-01T15:03:09.342Z,40
2017-11-01T15:04:19.973Z,40
2017-11-01T15:05:30.484Z,35
2017-11-01T15:06:40.939Z,35
2017-11-01T15:07:51.449Z,30
2017-11-01T15:09:01.954Z,30
2017-11-01T15:10:12.675Z,30
2017-11-01T15:11:23.172Z,30
2017-11-01T15:12:33.674Z,25
2017-11-01T15:13:44.183Z,25
2017-11-01T15:14:54.689Z,20
2017-11-01T15:16:05.293Z,20
2017-11-01T15:17:15.884Z,15
2017-11-01T15:18:26.409Z,15
2017-11-01T15:19:36.569Z,15
2017-11-01T15:20:47.064Z,15
2017-11-01T15:21:57.566Z,15
2017-11-01T15:23:08.276Z,15
2017-11-01T15:24:18.834Z,15
2017-11-01T15:25:29.544Z,15
2017-11-01T15:26:40.022Z,10
2017-11-01T15:27:50.767Z,10
2017-11-01T15:29:01.007Z,10
2017-11-01T15:30:11.255Z,10
2017-11-01T15:31:22.422Z,5
2017-11-01T15:32:32.913Z,5
2017-11-01T15:33:43.416Z,5
2017-11-01T15:34:53.905Z,5
2017-11-01T15:36:04.415Z,5
2017-11-01T15:37:14.903Z,5
2017-11-01T15:38:25.431Z,5
2017-11-01T15:39:35.986Z,0
2017-11-01T15:40:46.495Z,0
2017-11-01T15:41:57.018Z,0
2017-11-01T15:43:07.655Z,0
2017-11-01T15:44:18.269Z,0
2017-11-01T15:45:28.813Z,0
2017-11-01T15:46:39.370Z,0
2017-11-01T15:47:49.986Z,0
2017-11-01T15:49:00.173Z,0
2017-11-01T15:50:10.349Z,0
2017-11-01T15:51:20.837Z,0
2017-11-01T15:52:31.362Z,0
2017-11-01T15:53:41.954Z,0
2017-11-01T15:54:52.464Z,0
2017-11-01T15:56:02.959Z,0
2017-11-01T15:57:13.472Z,0
2017-11-01T15:58:23.989Z,0
2017-11-01T15:59:34.551Z,0
2017-11-01T16:00:45.115Z,0
2017-11-01T16:01:55.649Z,0
2017-11-01T16:03:06.402Z,0
2017-11-01T16:04:16.684Z,0
2017-11-01T16:05:27.252Z,0
2017-11-01T16:06:37.854Z,0
2017-11-01T16:07:48.341Z,0
2017-11-01T16:08:58.953Z,0
2017-11-01T16:10:09.598Z,0
2017-11-01T16:11:20.128Z,0
2017-11-01T16:12:30.611Z,0
2017-11-01T16:13:41.112Z,0
2017-11-01T16:14:51.625Z,0
2017-11-01T16:16:02.138Z,0
2017-11-01T16:17:12.651Z,0
2017-11-01T16:18:23.189Z,0
2017-11-01T16:19:33.706Z,0
2017-11-01T16:20:44.242Z,0
2017-11-01T16:21:54.775Z,0
2017-11-01T16:23:05.301Z,0
2017-11-01T16:24:15.787Z,0
2017-11-01T16:25:26.369Z,0
2017-11-01T16:26:36.843Z,0
2017-11-01T16:27:47.338Z,0
2017-11-01T16:28:57.494Z,0
2017-11-01T16:30:08.258Z,0
2017-11-01T16:31:18.487Z,0
2017-11-01T16:32:29.002Z,0
2017-11-01T16:33:39.749Z,0
2017-11-01T16:34:49.897Z,0
2017-11-01T16:36:00.395Z,0
2017-11-01T16:37:11.124Z,0
2017-11-01T16:38:21.666Z,0
2017-11-01T16:39:32.182Z,0
2017-11-01T16:40:42.736Z,0
2017-11-01T16:41:53.266Z,0
2017-11-01T16:43:04.008Z,0
2017-11-01T16:44:14.541Z,0
2017-11-01T16:45:25.159Z,0
2017-11-01T16:46:35.643Z,0
2017-11-01T16:47:46.487Z,0
2017-11-01T16:48:57.019Z,0
2017-11-01T16:50:07.500Z,0
2017-11-01T16:51:18.011Z,0
2017-11-01T16:52:28.501Z,0
2017-11-01T16:53:39.110Z,0
2017-11-01T16:54:49.693Z,0